Berlin Center, Ohio
Current Conditions -  °F | °C
As of 6:00 PM on Tuesday 25 Nov 2014 (Local Time) from KPOV Reporting Station
Overcast Overcast  
Wind Chill: 29°   Ceiling: 2500
Heat Index: 35°   Visibility: 10mi
Dew Point: 25°   Wind: 8mph
Humidity: 66%   Direction: 270°W
Pressure: 30.11"   Gusts: NA
Location:  41.02°N, 80.95°W
Report Text: KPOV 252300Z AUTO 27007KT 10SM OVC025 02/M04 A3011 RMK AO2 T00171040
Loading
Personal Weather Stations






























Interactive Weather Map New forecast layout! Learn more

10-Day Weather Forecast

Advertisements
Track Severe Weather on mobile